< < Back
Terminal Aerodrome Forecast


Current Version              Previous Versions:   1  2  3  4  5  6  7  8  9  

Terminal Aerodrome Forecast

079
FTUS44 KBMX 200500
TAFBHM
TAF
KBHM 200531Z 2006/2106 23003KT P6SM SCT150
     FM201500 28007KT P6SM SCT040=

Latest METAR

920
SAUS70 KWBC 200900 RRA
MTRBHM
METAR KBHM 200853Z 23004KT 10SM FEW150 24/21 A2999 RMK AO2 SLP146
T02390206 53001


USA.gov is the U.S. government's official web portal to all federal, state and local government web resources and services.